Time;durP1;ratioP1;P1;durP2;ratioP2;P2;SDS_P1;SDS_P2;PMS_P1;PMS_P2;Temp;Humidity;BMP_temperature;BMP_pressure;BME280_temperature;BME280_humidity;BME280_pressure;Samples;Min_cycle;Max_cycle;Signal;HPM_P1;HPM_P2
2022/01/02 00:01:46;;;;;;;1.25;1.23;;;7.30;99.90;;;;;;5031331;28;20033;-72
2022/01/02 00:04:20;;;;;;;0.10;0.10;;;7.30;99.90;;;;;;5029833;28;20034;-73
2022/01/02 00:06:53;;;;;;;0.10;0.10;;;7.30;99.90;;;;;;5028822;28;20105;-72
2022/01/02 00:09:32;;;;;;;0.25;0.25;;;7.30;99.90;;;;;;5031416;28;20224;-72
2022/01/02 00:12:10;;;;;;;0.10;0.10;;;7.20;99.90;;;;;;5031792;28;20137;-73
2022/01/02 00:14:38;;;;;;;0.10;0.10;;;7.30;99.90;;;;;;5031503;28;20040;-71
2022/01/02 00:17:05;;;;;;;0.10;0.10;;;7.30;99.90;;;;;;5031356;28;20070;-72
2022/01/02 00:19:32;;;;;;;2.10;1.95;;;7.30;99.90;;;;;;5028838;28;20033;-71
2022/01/02 00:22:01;;;;;;;0.08;0.08;;;7.30;99.90;;;;;;5026603;28;20018;-71
2022/01/02 00:24:28;;;;;;;0.10;0.10;;;7.30;99.90;;;;;;5032000;28;20021;-71
2022/01/02 00:26:56;;;;;;;0.10;0.10;;;7.30;99.90;;;;;;5031637;28;20164;-71
2022/01/02 00:29:23;;;;;;;1.27;1.23;;;7.40;99.90;;;;;;5013942;28;20033;-72
2022/01/02 00:31:49;;;;;;;0.10;0.10;;;7.30;99.90;;;;;;5030954;28;20179;-72
2022/01/02 00:34:15;;;;;;;0.10;0.10;;;7.40;99.90;;;;;;5031580;28;20322;-71
2022/01/02 00:36:41;;;;;;;0.10;0.10;;;7.40;99.90;;;;;;5043370;28;20025;-72
2022/01/02 00:39:07;;;;;;;0.10;0.10;;;7.40;99.90;;;;;;5031668;28;20513;-71
2022/01/02 00:41:41;;;;;;;0.10;0.10;;;7.40;99.90;;;;;;5029670;28;20037;-71
2022/01/02 00:44:40;;;;;;;0.10;0.10;;;7.30;99.90;;;;;;5027068;28;20127;-71
2022/01/02 00:47:08;;;;;;;0.10;0.10;;;7.30;99.90;;;;;;5031164;28;20033;-72
2022/01/02 00:49:39;;;;;;;0.10;0.10;;;7.30;99.90;;;;;;5035790;28;20450;-71
2022/01/02 00:52:12;;;;;;;1.67;1.17;;;7.30;99.90;;;;;;5033621;28;20174;-72
2022/01/02 00:54:43;;;;;;;0.10;0.10;;;7.40;99.90;;;;;;5030561;28;20104;-71
2022/01/02 00:57:13;;;;;;;0.10;0.10;;;7.20;99.90;;;;;;5031089;28;20037;-72
2022/01/02 01:00:03;;;;;;;0.10;0.10;;;7.20;99.90;;;;;;5031279;28;20529;-71
2022/01/02 01:02:33;;;;;;;0.10;0.10;;;7.20;99.90;;;;;;5031055;28;20040;-72
2022/01/02 01:05:02;;;;;;;0.10;0.10;;;7.10;99.90;;;;;;5031029;28;20033;-71
2022/01/02 01:07:28;;;;;;;0.10;0.10;;;7.10;99.90;;;;;;5027798;28;20066;-70
2022/01/02 01:09:56;;;;;;;0.10;0.10;;;7.10;99.90;;;;;;5011935;28;20100;-72
2022/01/02 01:12:22;;;;;;;0.28;0.28;;;7.10;99.90;;;;;;5016535;28;20040;-70
2022/01/02 01:14:49;;;;;;;0.32;0.32;;;7.10;99.90;;;;;;5032196;28;20017;-70
2022/01/02 01:17:15;;;;;;;0.20;0.20;;;7.10;99.90;;;;;;5033895;28;20029;-71
2022/01/02 01:19:42;;;;;;;0.10;0.10;;;7.10;99.90;;;;;;5034117;28;20557;-71
2022/01/02 01:22:08;;;;;;;0.10;0.10;;;7.10;99.90;;;;;;5033479;28;20029;-71
2022/01/02 01:24:35;;;;;;;0.10;0.10;;;7.10;99.90;;;;;;5032391;28;20132;-71
2022/01/02 01:27:04;;;;;;;0.57;0.57;;;7.10;99.90;;;;;;5029431;28;20060;-71
2022/01/02 01:29:34;;;;;;;0.10;0.10;;;7.10;99.90;;;;;;5033843;28;20056;-71
2022/01/02 01:32:05;;;;;;;0.10;0.10;;;7.10;99.90;;;;;;5032603;28;20564;-71
2022/01/02 01:34:31;;;;;;;0.75;0.75;;;7.00;99.90;;;;;;5031895;28;20030;-71
2022/01/02 01:36:56;;;;;;;0.47;0.47;;;7.00;99.90;;;;;;5033211;28;20078;-73
2022/01/02 01:39:22;;;;;;;0.35;0.35;;;7.00;99.90;;;;;;5020091;28;20025;-73
2022/01/02 01:41:48;;;;;;;0.10;0.10;;;6.90;99.90;;;;;;5024344;28;20033;-73
2022/01/02 01:46:41;;;;;;;0.10;0.10;;;6.80;99.90;;;;;;5035836;28;20017;-72
2022/01/02 01:49:18;;;;;;;4.75;3.83;;;6.80;99.90;;;;;;5030562;28;20048;-71
2022/01/02 01:51:45;;;;;;;0.10;0.10;;;6.80;99.90;;;;;;5029830;28;20026;-72
2022/01/02 01:54:11;;;;;;;0.10;0.10;;;7.20;99.90;;;;;;5030154;28;20086;-72
2022/01/02 01:56:38;;;;;;;0.10;0.10;;;6.70;99.90;;;;;;5028489;28;20041;-71
2022/01/02 01:59:04;;;;;;;0.10;0.10;;;6.70;99.90;;;;;;5025056;28;20038;-71
2022/01/02 02:01:31;;;;;;;3.60;2.75;;;6.70;99.90;;;;;;5028274;28;20513;-70
2022/01/02 02:03:57;;;;;;;0.65;0.65;;;6.70;99.90;;;;;;5028478;28;20065;-71
2022/01/02 02:06:23;;;;;;;0.10;0.10;;;6.50;99.90;;;;;;5027560;28;20053;-71
2022/01/02 02:08:52;;;;;;;0.35;0.35;;;6.60;99.90;;;;;;5030218;28;20030;-70
2022/01/02 02:11:19;;;;;;;0.10;0.10;;;6.70;99.90;;;;;;5030237;28;20057;-71
2022/01/02 02:13:45;;;;;;;5.05;2.65;;;6.60;99.90;;;;;;5025261;28;20061;-71
2022/01/02 02:16:11;;;;;;;3.25;3.03;;;6.60;99.90;;;;;;5030243;28;20025;-72
2022/01/02 02:18:36;;;;;;;2.83;2.15;;;6.60;99.90;;;;;;5026193;28;20030;-70
2022/01/02 02:21:02;;;;;;;0.10;0.10;;;6.60;99.90;;;;;;5030028;28;20490;-72
2022/01/02 02:23:28;;;;;;;0.10;0.10;;;6.60;99.90;;;;;;5030093;28;20025;-71
2022/01/02 02:25:54;;;;;;;0.40;0.40;;;6.60;99.90;;;;;;5028965;28;20568;-72
2022/01/02 02:28:20;;;;;;;0.30;0.30;;;6.60;99.90;;;;;;5029387;28;20071;-72
2022/01/02 02:30:48;;;;;;;0.03;0.03;;;6.50;99.90;;;;;;5029158;28;20043;-71
2022/01/02 02:33:15;;;;;;;0.32;0.32;;;6.50;99.90;;;;;;5029550;28;20029;-71
2022/01/02 02:35:43;;;;;;;0.10;0.10;;;6.50;99.90;;;;;;5028179;28;20038;-71
2022/01/02 02:38:10;;;;;;;0.25;0.25;;;6.50;99.90;;;;;;5029395;28;20045;-72
2022/01/02 02:40:36;;;;;;;0.35;0.35;;;6.50;99.90;;;;;;5028997;28;20108;-72
2022/01/02 02:51:03;;;;;;;0.10;0.10;;;6.40;99.90;;;;;;5029648;28;20113;-71
2022/01/02 02:53:29;;;;;;;0.10;0.10;;;6.40;99.90;;;;;;5030985;28;20055;-71
2022/01/02 02:55:57;;;;;;;0.17;0.17;;;6.40;99.90;;;;;;5029476;28;20096;-71
2022/01/02 03:00:59;;;;;;;0.10;0.10;;;6.30;99.90;;;;;;5033126;28;20025;-71
2022/01/02 03:03:25;;;;;;;0.10;0.10;;;6.30;99.90;;;;;;5029496;28;20026;-71
2022/01/02 03:05:51;;;;;;;0.10;0.10;;;6.30;99.90;;;;;;5028877;28;20103;-71
2022/01/02 03:08:17;;;;;;;0.00;0.00;;;6.30;99.90;;;;;;5029158;28;20032;-71
2022/01/02 03:10:43;;;;;;;0.38;0.38;;;6.30;99.90;;;;;;5029671;28;20033;-71
2022/01/02 03:13:08;;;;;;;0.10;0.10;;;6.20;99.90;;;;;;5029494;28;20022;-71
2022/01/02 03:15:34;;;;;;;0.10;0.10;;;6.20;99.90;;;;;;5028770;28;20025;-71
2022/01/02 03:17:59;;;;;;;0.10;0.10;;;6.20;99.90;;;;;;5029601;28;20450;-69
2022/01/02 03:20:25;;;;;;;0.10;0.10;;;6.30;99.90;;;;;;5029244;28;20026;-71
2022/01/02 03:22:51;;;;;;;0.70;0.70;;;6.20;99.90;;;;;;5029107;28;20038;-70
2022/01/02 03:25:17;;;;;;;0.10;0.10;;;6.10;99.90;;;;;;5028681;28;20051;-71
2022/01/02 03:27:43;;;;;;;0.10;0.10;;;6.10;99.90;;;;;;5028709;28;20029;-71
2022/01/02 03:30:11;;;;;;;0.10;0.10;;;6.10;99.90;;;;;;5029287;28;20083;-71
2022/01/02 03:32:37;;;;;;;0.10;0.10;;;6.20;99.90;;;;;;5027656;28;20170;-71
2022/01/02 03:35:03;;;;;;;0.13;0.13;;;6.20;99.90;;;;;;5021280;28;20038;-72
2022/01/02 03:37:29;;;;;;;8.30;3.83;;;6.20;99.90;;;;;;5028673;28;20059;-71
2022/01/02 03:39:55;;;;;;;0.00;0.00;;;6.20;99.90;;;;;;5031843;28;20108;-70
2022/01/02 03:42:21;;;;;;;0.10;0.10;;;6.10;99.90;;;;;;5031973;28;20029;-70
2022/01/02 03:44:47;;;;;;;0.10;0.10;;;6.20;99.90;;;;;;5032728;28;20104;-70
2022/01/02 03:47:12;;;;;;;0.95;0.95;;;6.20;99.90;;;;;;5028504;28;20526;-71
2022/01/02 03:49:38;;;;;;;0.10;0.10;;;6.20;99.90;;;;;;5029066;28;20450;-71
2022/01/02 03:52:04;;;;;;;0.10;0.10;;;6.10;99.90;;;;;;5028777;28;20478;-72
2022/01/02 03:54:30;;;;;;;0.10;0.10;;;6.10;99.90;;;;;;5027353;28;20156;-71
2022/01/02 03:56:55;;;;;;;0.10;0.10;;;6.10;99.90;;;;;;5027378;28;20061;-72
2022/01/02 03:59:21;;;;;;;0.10;0.10;;;6.00;99.90;;;;;;5029016;28;20108;-72
2022/01/02 04:01:47;;;;;;;0.10;0.10;;;6.00;99.90;;;;;;5026389;28;20490;-71
2022/01/02 04:04:13;;;;;;;0.10;0.10;;;6.00;99.90;;;;;;5023535;28;20147;-72
2022/01/02 04:06:38;;;;;;;0.10;0.10;;;6.00;99.90;;;;;;5028861;28;20076;-72
2022/01/02 04:09:04;;;;;;;0.38;0.38;;;5.90;99.90;;;;;;5027547;28;20025;-72
2022/01/02 04:11:30;;;;;;;0.30;0.30;;;5.90;99.90;;;;;;5029403;28;20112;-73
2022/01/02 04:13:55;;;;;;;0.10;0.10;;;5.90;99.90;;;;;;5027153;28;20029;-71
2022/01/02 04:16:21;;;;;;;0.20;0.20;;;5.90;99.90;;;;;;5030809;28;20445;-70
2022/01/02 04:18:48;;;;;;;0.10;0.10;;;5.90;99.90;;;;;;5032739;28;20554;-70
2022/01/02 04:21:13;;;;;;;1.15;1.08;;;5.90;99.90;;;;;;5030659;28;20117;-72
2022/01/02 04:23:39;;;;;;;0.10;0.10;;;5.90;99.90;;;;;;5009516;28;20104;-72
2022/01/02 04:26:05;;;;;;;0.20;0.20;;;5.80;99.90;;;;;;5026323;28;20025;-71
2022/01/02 04:28:31;;;;;;;0.15;0.15;;;5.80;99.90;;;;;;5027934;28;20104;-71
2022/01/02 04:30:56;;;;;;;0.75;0.75;;;5.80;99.90;;;;;;5026689;28;20573;-71
2022/01/02 04:33:22;;;;;;;0.00;0.00;;;5.80;99.90;;;;;;5028147;28;20044;-72
2022/01/02 04:35:47;;;;;;;0.77;0.77;;;5.80;99.90;;;;;;5026806;28;20029;-71
2022/01/02 04:38:14;;;;;;;0.00;0.00;;;5.80;99.90;;;;;;5028957;28;20487;-70
2022/01/02 04:40:40;;;;;;;0.10;0.10;;;5.80;99.90;;;;;;5031873;28;20026;-72
2022/01/02 04:43:07;;;;;;;0.10;0.10;;;5.80;99.90;;;;;;5031112;28;20044;-73
2022/01/02 04:45:32;;;;;;;0.30;0.30;;;5.90;99.90;;;;;;5026662;28;20502;-71
2022/01/02 04:47:58;;;;;;;0.00;0.00;;;5.90;99.90;;;;;;5028697;28;20037;-71
2022/01/02 04:50:24;;;;;;;0.15;0.15;;;6.00;99.90;;;;;;5013239;28;20440;-72
2022/01/02 04:52:49;;;;;;;0.10;0.10;;;6.00;99.90;;;;;;5026426;28;20539;-71
2022/01/02 04:55:15;;;;;;;0.10;0.10;;;6.00;99.90;;;;;;5026062;28;20380;-72
2022/01/02 04:57:41;;;;;;;0.10;0.10;;;6.10;99.90;;;;;;5028678;28;20026;-71
2022/01/02 05:00:07;;;;;;;0.10;0.10;;;6.10;99.90;;;;;;5057459;22;20051;-67
2022/01/02 05:02:33;;;;;;;0.20;0.20;;;6.20;99.90;;;;;;5060258;28;20135;-67
2022/01/02 05:04:59;;;;;;;0.10;0.10;;;6.20;99.90;;;;;;5070210;28;20024;-68
2022/01/02 05:07:25;;;;;;;0.10;0.10;;;6.20;99.90;;;;;;5082896;28;20602;-67
2022/01/02 05:09:51;;;;;;;0.10;0.10;;;6.20;99.90;;;;;;5070207;28;20059;-67
2022/01/02 05:12:16;;;;;;;0.10;0.10;;;6.20;99.90;;;;;;5070811;28;20382;-67
2022/01/02 05:14:42;;;;;;;0.73;0.73;;;6.10;99.90;;;;;;5070859;28;20484;-67
2022/01/02 05:17:08;;;;;;;0.10;0.10;;;6.10;99.90;;;;;;5070900;28;20158;-66
2022/01/02 05:19:33;;;;;;;1.42;1.40;;;6.10;99.90;;;;;;5064965;28;20078;-66
2022/01/02 05:21:59;;;;;;;0.20;0.20;;;6.10;99.90;;;;;;5061953;28;20064;-66
2022/01/02 05:24:25;;;;;;;0.10;0.10;;;6.00;99.90;;;;;;5070373;28;20035;-66
2022/01/02 05:26:51;;;;;;;0.15;0.15;;;6.00;99.90;;;;;;5069477;28;20043;-66
2022/01/02 05:29:17;;;;;;;0.10;0.10;;;6.00;99.90;;;;;;5070155;28;20028;-67
2022/01/02 05:31:43;;;;;;;0.10;0.10;;;6.00;99.90;;;;;;5036010;28;20020;-66
2022/01/02 05:34:09;;;;;;;1.10;1.00;;;6.10;99.90;;;;;;5068195;28;20044;-67
2022/01/02 05:36:34;;;;;;;0.10;0.10;;;6.10;99.90;;;;;;5070130;28;20481;-68
2022/01/02 05:39:00;;;;;;;0.10;0.10;;;6.10;99.90;;;;;;5065360;28;20029;-68
2022/01/02 05:41:28;;;;;;;1.48;1.38;;;6.10;99.90;;;;;;5065820;28;20032;-68
2022/01/02 05:43:53;;;;;;;0.20;0.20;;;6.20;99.90;;;;;;5053895;28;20028;-67
2022/01/02 05:46:19;;;;;;;0.10;0.10;;;6.20;99.90;;;;;;5070016;28;20044;-67
2022/01/02 05:48:45;;;;;;;0.10;0.10;;;6.30;99.90;;;;;;5070103;28;20470;-68
2022/01/02 05:51:11;;;;;;;0.08;0.08;;;6.30;99.90;;;;;;5070053;28;20024;-67
2022/01/02 05:53:36;;;;;;;0.20;0.20;;;6.30;99.90;;;;;;5068968;28;20024;-67
2022/01/02 05:56:02;;;;;;;0.10;0.10;;;6.30;99.90;;;;;;5068322;28;20021;-68
2022/01/02 05:58:28;;;;;;;0.10;0.10;;;6.30;99.90;;;;;;5070140;28;20020;-68
2022/01/02 06:00:53;;;;;;;0.10;0.10;;;6.40;99.90;;;;;;5069320;28;20036;-68
2022/01/02 06:03:19;;;;;;;0.10;0.10;;;6.40;99.90;;;;;;5051133;28;20036;-67
2022/01/02 06:05:45;;;;;;;0.15;0.15;;;6.40;99.90;;;;;;5069766;28;20024;-67
2022/01/02 06:08:11;;;;;;;0.10;0.10;;;6.40;99.90;;;;;;5069578;28;20028;-67
2022/01/02 06:10:37;;;;;;;0.10;0.10;;;6.50;99.90;;;;;;5069060;28;20149;-67
2022/01/02 06:13:03;;;;;;;0.10;0.10;;;6.40;99.90;;;;;;5069781;28;20101;-67
2022/01/02 06:15:28;;;;;;;0.10;0.10;;;6.40;99.90;;;;;;5069460;28;20037;-68
2022/01/02 06:17:54;;;;;;;0.73;0.73;;;6.40;99.90;;;;;;5073544;28;20040;-71
2022/01/02 06:20:19;;;;;;;0.13;0.13;;;6.40;99.90;;;;;;5080217;28;20031;-69
2022/01/02 06:22:45;;;;;;;0.10;0.10;;;6.40;99.90;;;;;;5089904;28;20481;-68
2022/01/02 06:25:11;;;;;;;0.10;0.10;;;6.30;99.90;;;;;;5069020;28;20111;-68
2022/01/02 06:27:36;;;;;;;0.10;0.10;;;6.30;99.90;;;;;;5064077;28;20024;-68
2022/01/02 06:30:04;;;;;;;0.20;0.20;;;6.30;99.90;;;;;;5066223;28;20479;-68
2022/01/02 06:32:29;;;;;;;0.10;0.10;;;6.30;99.90;;;;;;5069213;28;20036;-68
2022/01/02 06:34:55;;;;;;;0.10;0.10;;;6.30;99.90;;;;;;5069277;28;20023;-68
2022/01/02 06:37:20;;;;;;;0.10;0.10;;;6.90;99.90;;;;;;5068964;28;20021;-68
2022/01/02 06:39:46;;;;;;;0.10;0.10;;;6.30;99.90;;;;;;5051655;28;20462;-67
2022/01/02 06:42:11;;;;;;;0.10;0.10;;;6.30;99.90;;;;;;5051179;28;20017;-67
2022/01/02 06:44:37;;;;;;;0.20;0.20;;;6.30;99.90;;;;;;5068396;28;20031;-68
2022/01/02 06:47:03;;;;;;;0.10;0.10;;;6.30;99.90;;;;;;5069083;28;20306;-68
2022/01/02 06:49:29;;;;;;;1.90;1.80;;;6.30;99.90;;;;;;5069343;28;20056;-67
2022/01/02 06:51:54;;;;;;;0.17;0.17;;;6.30;99.90;;;;;;5068657;28;20054;-67
2022/01/02 06:54:20;;;;;;;0.08;0.08;;;6.40;99.90;;;;;;5068837;28;20401;-67
2022/01/02 06:56:45;;;;;;;0.22;0.22;;;6.30;99.90;;;;;;5051256;28;20067;-67
2022/01/02 06:59:11;;;;;;;0.20;0.20;;;6.20;99.90;;;;;;5067470;28;20029;-67
2022/01/02 07:01:36;;;;;;;0.10;0.10;;;6.20;99.90;;;;;;5067849;28;20353;-67
2022/01/02 07:04:02;;;;;;;0.10;0.10;;;6.20;99.90;;;;;;5069174;28;20029;-67
2022/01/02 07:06:28;;;;;;;0.20;0.20;;;6.20;99.90;;;;;;5069195;28;20467;-67
2022/01/02 07:08:53;;;;;;;0.32;0.32;;;6.10;99.90;;;;;;5069355;28;20105;-67
2022/01/02 07:11:19;;;;;;;0.10;0.10;;;6.30;99.90;;;;;;5046505;28;20518;-67
2022/01/02 07:13:45;;;;;;;0.10;0.10;;;6.20;99.90;;;;;;5050616;28;20090;-68
2022/01/02 07:16:10;;;;;;;0.00;0.00;;;6.20;99.90;;;;;;5051751;28;20032;-68
2022/01/02 07:18:36;;;;;;;0.10;0.10;;;6.30;99.90;;;;;;5071786;28;20036;-68
2022/01/02 07:21:02;;;;;;;0.10;0.10;;;6.30;99.90;;;;;;5072772;28;20039;-68
2022/01/02 07:23:27;;;;;;;0.10;0.10;;;6.30;99.90;;;;;;5070930;28;20449;-68
2022/01/02 07:25:53;;;;;;;0.10;0.10;;;6.30;99.90;;;;;;5072458;28;20531;-68
2022/01/02 07:28:20;;;;;;;0.15;0.15;;;6.30;99.90;;;;;;5071680;28;20600;-68
2022/01/02 07:30:45;;;;;;;0.10;0.10;;;6.30;99.90;;;;;;5081224;28;20028;-68
2022/01/02 07:33:11;;;;;;;0.20;0.20;;;6.20;99.90;;;;;;5072360;28;20414;-68
2022/01/02 07:35:36;;;;;;;0.10;0.10;;;6.20;99.90;;;;;;5072501;28;20029;-68
2022/01/02 07:38:02;;;;;;;0.52;0.52;;;6.20;99.90;;;;;;5072584;28;20457;-68
2022/01/02 07:40:28;;;;;;;0.10;0.10;;;6.20;99.90;;;;;;5071849;28;20031;-69
2022/01/02 07:42:53;;;;;;;0.70;0.70;;;6.10;99.90;;;;;;5072502;28;20510;-68
2022/01/02 07:45:20;;;;;;;1.33;1.27;;;6.10;99.90;;;;;;5071970;28;20028;-68
2022/01/02 07:47:46;;;;;;;0.25;0.25;;;6.10;99.90;;;;;;5071358;28;20035;-68
2022/01/02 07:50:12;;;;;;;0.10;0.10;;;6.10;99.90;;;;;;5072286;28;20024;-68
2022/01/02 07:52:38;;;;;;;0.10;0.10;;;6.10;99.90;;;;;;5072338;28;20108;-68
2022/01/02 07:55:04;;;;;;;0.90;0.90;;;6.10;99.90;;;;;;5070253;28;20527;-68
2022/01/02 07:57:29;;;;;;;0.10;0.10;;;6.20;99.90;;;;;;5070767;28;20111;-68
2022/01/02 07:59:55;;;;;;;0.10;0.10;;;6.20;99.90;;;;;;5071581;28;20043;-67
2022/01/02 08:02:21;;;;;;;0.47;0.47;;;6.20;99.90;;;;;;5067219;28;20078;-67
2022/01/02 08:04:46;;;;;;;0.10;0.10;;;6.20;99.90;;;;;;5065852;28;20060;-68
2022/01/02 08:07:12;;;;;;;0.10;0.10;;;6.20;99.90;;;;;;5072144;28;20044;-69
2022/01/02 08:09:37;;;;;;;0.10;0.10;;;6.30;99.90;;;;;;5072147;28;20031;-68
2022/01/02 08:12:03;;;;;;;0.10;0.10;;;6.40;99.90;;;;;;5071301;28;20048;-68
2022/01/02 08:14:29;;;;;;;0.20;0.20;;;6.40;99.90;;;;;;5071011;28;20037;-67
2022/01/02 08:16:55;;;;;;;0.10;0.10;;;6.50;99.90;;;;;;5071780;28;20082;-67
2022/01/02 08:19:21;;;;;;;0.10;0.10;;;6.50;99.90;;;;;;5068957;28;20028;-66
2022/01/02 08:21:46;;;;;;;0.17;0.17;;;6.60;99.90;;;;;;5065773;28;20074;-67
2022/01/02 08:24:12;;;;;;;0.10;0.10;;;6.70;99.90;;;;;;5070797;28;20060;-68
2022/01/02 08:26:37;;;;;;;0.10;0.10;;;6.80;99.90;;;;;;5070451;28;20040;-68
2022/01/02 08:29:03;;;;;;;0.95;0.95;;;6.90;99.90;;;;;;5068797;28;20324;-68
2022/01/02 08:31:29;;;;;;;0.63;0.63;;;6.90;99.90;;;;;;5064369;28;20506;-68
2022/01/02 08:33:55;;;;;;;0.10;0.10;;;6.90;99.90;;;;;;5071264;28;20470;-68
2022/01/02 08:36:21;;;;;;;0.10;0.10;;;7.00;99.90;;;;;;5071383;28;20016;-67
2022/01/02 08:38:47;;;;;;;2.28;1.95;;;7.00;99.90;;;;;;5073118;28;20501;-68
2022/01/02 08:41:14;;;;;;;0.00;0.00;;;7.00;99.90;;;;;;5080607;28;20021;-68
2022/01/02 08:43:40;;;;;;;0.28;0.28;;;7.10;99.90;;;;;;5071140;28;20028;-67
2022/01/02 08:46:06;;;;;;;0.10;0.10;;;7.20;99.90;;;;;;5070671;28;20031;-67
2022/01/02 08:48:32;;;;;;;0.10;0.10;;;7.20;99.90;;;;;;5070550;28;20040;-67
2022/01/02 08:50:57;;;;;;;0.10;0.10;;;7.20;99.90;;;;;;5071088;28;20031;-67
2022/01/02 08:53:23;;;;;;;0.00;0.00;;;7.30;99.90;;;;;;5070917;28;20032;-67
2022/01/02 08:55:49;;;;;;;0.10;0.10;;;7.40;99.90;;;;;;5070488;28;20028;-67
2022/01/02 08:58:15;;;;;;;0.10;0.10;;;7.50;99.90;;;;;;5070154;28;20035;-67
2022/01/02 09:00:40;;;;;;;0.10;0.10;;;7.60;99.90;;;;;;5070389;28;20025;-67
2022/01/02 09:03:06;;;;;;;0.15;0.15;;;7.60;99.90;;;;;;5070897;28;20060;-67
2022/01/02 09:05:33;;;;;;;0.10;0.10;;;7.60;99.90;;;;;;5068275;28;20449;-67
2022/01/02 09:07:58;;;;;;;2.80;1.65;;;7.70;99.90;;;;;;5070393;28;20516;-68
2022/01/02 09:10:24;;;;;;;0.10;0.10;;;7.70;99.90;;;;;;5070514;28;20122;-67
2022/01/02 09:12:50;;;;;;;0.03;0.03;;;7.70;99.90;;;;;;5069920;28;20035;-67
2022/01/02 09:15:16;;;;;;;0.22;0.22;;;7.80;99.90;;;;;;5069453;28;20114;-68
2022/01/02 09:17:42;;;;;;;0.68;0.68;;;7.90;99.90;;;;;;5053042;28;20036;-67
2022/01/02 09:20:09;;;;;;;1.63;1.52;;;8.00;99.90;;;;;;5061383;28;20028;-67
2022/01/02 09:22:37;;;;;;;0.00;0.00;;;8.10;99.90;;;;;;5070121;28;20028;-68
2022/01/02 09:25:03;;;;;;;0.65;0.65;;;8.20;99.90;;;;;;5070236;28;20032;-68
2022/01/02 09:27:29;;;;;;;0.10;0.10;;;8.40;99.90;;;;;;5070420;28;20040;-68
2022/01/02 09:29:55;;;;;;;0.10;0.10;;;8.50;99.90;;;;;;5064853;28;20041;-67
2022/01/02 09:32:21;;;;;;;0.10;0.10;;;8.60;99.90;;;;;;5069889;28;20028;-68
2022/01/02 09:34:47;;;;;;;0.10;0.10;;;8.70;99.90;;;;;;5069102;28;20024;-68
2022/01/02 09:37:13;;;;;;;0.10;0.10;;;8.70;99.90;;;;;;5069671;28;20028;-68
2022/01/02 09:39:38;;;;;;;0.10;0.10;;;8.70;99.90;;;;;;5069125;28;20162;-68
2022/01/02 09:42:04;;;;;;;0.10;0.10;;;8.70;99.90;;;;;;5057904;28;20112;-68
2022/01/02 09:44:31;;;;;;;0.10;0.10;;;8.70;99.90;;;;;;5059610;28;20334;-68
2022/01/02 09:46:58;;;;;;;0.10;0.10;;;8.70;99.90;;;;;;5050010;28;20446;-68
2022/01/02 09:49:24;;;;;;;0.10;0.10;;;8.80;99.90;;;;;;5066711;28;20036;-68
2022/01/02 09:51:50;;;;;;;0.00;0.00;;;8.80;99.90;;;;;;5082500;28;20021;-69
2022/01/02 09:54:16;;;;;;;0.08;0.08;;;8.90;99.90;;;;;;5069395;28;20025;-68
2022/01/02 09:56:42;;;;;;;0.10;0.10;;;8.90;99.90;;;;;;5069476;28;20037;-68
2022/01/02 09:59:07;;;;;;;0.10;0.10;;;8.90;99.90;;;;;;5068470;28;20028;-68
2022/01/02 10:01:33;;;;;;;0.90;0.90;;;9.00;99.90;;;;;;5069784;28;20060;-68
2022/01/02 10:03:59;;;;;;;0.10;0.10;;;9.00;99.90;;;;;;5050913;28;20520;-68
2022/01/02 10:06:48;;;;;;;1.02;1.02;;;9.00;99.90;;;;;;5069347;28;20486;-68
2022/01/02 10:09:31;;;;;;;0.10;0.10;;;9.00;99.90;;;;;;5068528;28;20428;-68
2022/01/02 10:12:25;;;;;;;0.10;0.10;;;9.10;99.90;;;;;;5069685;28;20032;-67
2022/01/02 10:15:14;;;;;;;0.10;0.10;;;9.10;99.90;;;;;;5063180;28;20037;-67
2022/01/02 10:18:04;;;;;;;0.10;0.10;;;9.10;99.90;;;;;;5061231;28;20043;-68
2022/01/02 10:20:45;;;;;;;0.10;0.10;;;9.00;99.90;;;;;;5063128;28;20021;-67
2022/01/02 10:23:13;;;;;;;0.45;0.45;;;9.20;99.90;;;;;;5069611;28;20028;-67
2022/01/02 10:25:49;;;;;;;0.43;0.43;;;8.80;99.90;;;;;;5068767;28;20498;-67
2022/01/02 10:28:26;;;;;;;0.52;0.52;;;8.80;99.90;;;;;;5069274;28;20020;-67
2022/01/02 10:30:57;;;;;;;0.00;0.00;;;8.80;99.90;;;;;;5051517;28;20028;-67
2022/01/02 10:33:23;;;;;;;0.10;0.10;;;8.70;99.90;;;;;;5068883;28;20164;-67
2022/01/02 10:36:01;;;;;;;0.10;0.10;;;8.80;99.90;;;;;;5069329;28;20028;-67
2022/01/02 10:38:28;;;;;;;0.08;0.08;;;8.90;99.90;;;;;;5068745;28;20017;-67
2022/01/02 10:40:54;;;;;;;0.10;0.10;;;8.90;99.90;;;;;;5068533;28;20017;-67
2022/01/02 10:43:30;;;;;;;0.75;0.75;;;9.00;99.90;;;;;;5067922;28;20486;-67
2022/01/02 10:45:59;;;;;;;0.38;0.38;;;9.00;99.90;;;;;;5051305;28;20028;-67
2022/01/02 10:48:40;;;;;;;0.15;0.15;;;9.10;99.90;;;;;;5069723;28;20100;-67
2022/01/02 10:51:15;;;;;;;0.10;0.10;;;9.10;99.90;;;;;;5069346;28;20044;-67
2022/01/02 10:53:58;;;;;;;0.10;0.10;;;9.20;99.90;;;;;;5062626;28;20029;-67
2022/01/02 10:56:30;;;;;;;0.10;0.10;;;9.30;99.90;;;;;;5073349;28;20025;-68
2022/01/02 10:58:58;;;;;;;0.10;0.10;;;9.40;99.90;;;;;;5072796;28;20051;-68
2022/01/02 11:01:24;;;;;;;0.10;0.10;;;9.40;99.90;;;;;;5073393;28;20024;-69
2022/01/02 11:03:52;;;;;;;0.10;0.10;;;9.60;99.90;;;;;;5084303;28;20031;-68
2022/01/02 11:06:31;;;;;;;0.10;0.10;;;9.50;99.90;;;;;;5054720;28;20079;-67
2022/01/02 11:08:59;;;;;;;0.10;0.10;;;9.50;99.90;;;;;;5063672;28;20079;-69
2022/01/02 11:13:57;;;;;;;0.10;0.10;;;9.50;99.90;;;;;;5049119;28;20053;-72
2022/01/02 11:16:23;;;;;;;0.10;0.10;;;9.50;99.90;;;;;;5049723;28;20040;-72
2022/01/02 11:18:50;;;;;;;0.10;0.10;;;9.60;99.90;;;;;;5052826;28;20097;-72
2022/01/02 11:21:16;;;;;;;0.10;0.10;;;9.60;99.90;;;;;;5052871;28;20029;-72
2022/01/02 11:23:49;;;;;;;0.98;0.98;;;9.70;99.90;;;;;;5030360;28;20091;-74
2022/01/02 11:26:33;;;;;;;;;;;9.80;99.90;;;;;;5025126;28;20108;-72
2022/01/02 11:28:59;;;;;;;;;;;10.00;99.90;;;;;;5028877;28;19944;-73
2022/01/02 11:31:37;;;;;;;0.10;0.10;;;10.20;99.90;;;;;;5033236;28;19941;-72
2022/01/02 11:34:26;;;;;;;0.10;0.10;;;10.10;99.90;;;;;;5028958;28;20040;-77
2022/01/02 11:37:10;;;;;;;0.20;0.20;;;10.20;99.90;;;;;;5031493;28;20022;-75
2022/01/02 11:39:56;;;;;;;0.10;0.10;;;10.20;99.90;;;;;;5013388;28;20033;-73
2022/01/02 11:42:41;;;;;;;0.35;0.35;;;10.20;99.90;;;;;;5031114;28;20033;-74
2022/01/02 11:45:31;;;;;;;0.10;0.10;;;10.10;99.90;;;;;;5029977;28;20032;-74
2022/01/02 11:47:56;;;;;;;0.10;0.10;;;10.20;99.90;;;;;;5031111;28;20147;-74
2022/01/02 11:50:35;;;;;;;0.10;0.10;;;10.10;99.90;;;;;;5023340;28;20034;-74
2022/01/02 11:53:09;;;;;;;0.43;0.43;;;10.20;99.90;;;;;;5030157;28;20025;-75
2022/01/02 11:55:36;;;;;;;0.00;0.00;;;10.30;99.90;;;;;;5031118;28;20032;-75
2022/01/02 11:58:02;;;;;;;0.00;0.00;;;10.10;99.90;;;;;;5031121;28;20022;-72
2022/01/02 12:00:45;;;;;;;0.98;0.98;;;10.10;99.90;;;;;;5027021;28;20025;-73
2022/01/02 12:03:48;;;;;;;0.10;0.10;;;10.10;99.90;;;;;;5025909;28;20025;-72
2022/01/02 12:06:19;;;;;;;0.20;0.20;;;10.30;99.90;;;;;;5029459;28;20033;-73
2022/01/02 12:08:46;;;;;;;0.08;0.08;;;10.40;99.90;;;;;;5030922;28;20032;-74
2022/01/02 12:11:39;;;;;;;0.10;0.10;;;10.50;99.90;;;;;;5031227;28;20049;-73
2022/01/02 12:14:25;;;;;;;0.10;0.10;;;10.50;99.90;;;;;;5026891;28;20042;-73
2022/01/02 12:17:08;;;;;;;0.10;0.10;;;10.40;99.90;;;;;;5028538;28;20033;-73
2022/01/02 12:20:07;;;;;;;0.10;0.10;;;10.30;99.90;;;;;;5029624;28;20030;-75
2022/01/02 12:22:41;;;;;;;0.10;0.10;;;10.70;99.90;;;;;;4999119;28;20040;-75
2022/01/02 12:25:12;;;;;;;0.10;0.10;;;11.10;99.90;;;;;;5030512;28;20049;-75
2022/01/02 12:27:45;;;;;;;0.10;0.10;;;11.90;99.90;;;;;;5030008;28;20026;-76
2022/01/02 12:30:11;;;;;;;;;;;12.50;99.90;;;;;;5029914;28;20088;-76
2022/01/02 12:32:40;;;;;;;0.10;0.10;;;12.90;99.90;;;;;;5030748;28;19913;-75
2022/01/02 12:35:06;;;;;;;0.55;0.55;;;13.10;99.90;;;;;;5030479;28;20060;-76
2022/01/02 12:37:32;;;;;;;0.10;0.10;;;13.40;99.90;;;;;;5030667;28;20053;-77
2022/01/02 12:39:59;;;;;;;0.10;0.10;;;13.50;99.90;;;;;;5031038;28;20022;-74
2022/01/02 12:42:26;;;;;;;0.00;0.00;;;13.60;99.90;;;;;;5030600;28;20029;-74
2022/01/02 12:44:52;;;;;;;0.10;0.10;;;13.70;99.90;;;;;;5030575;28;20017;-74
2022/01/02 12:47:19;;;;;;;0.00;0.00;;;13.80;99.90;;;;;;5027078;28;20029;-75
2022/01/02 12:49:45;;;;;;;0.00;0.00;;;13.90;99.90;;;;;;5030657;28;20029;-76
2022/01/02 12:52:14;;;;;;;0.10;0.10;;;14.10;99.90;;;;;;5029970;28;20188;-72
2022/01/02 12:54:42;;;;;;;0.10;0.10;;;14.10;99.90;;;;;;5015520;28;20094;-74
2022/01/02 12:57:11;;;;;;;0.08;0.08;;;14.20;99.30;;;;;;5027560;28;20426;-77
2022/01/02 12:59:40;;;;;;;0.00;0.00;;;14.20;99.10;;;;;;5027623;28;20100;-75
2022/01/02 13:02:11;;;;;;;0.03;0.03;;;14.40;98.70;;;;;;5030697;28;20135;-74
2022/01/02 13:04:39;;;;;;;0.00;0.00;;;14.50;97.80;;;;;;5021921;28;20088;-76
2022/01/02 13:07:18;;;;;;;0.00;0.00;;;14.50;97.60;;;;;;5020239;28;20028;-74
2022/01/02 13:09:45;;;;;;;0.00;0.00;;;14.60;97.60;;;;;;5019876;28;20025;-74
2022/01/02 13:12:23;;;;;;;0.00;0.00;;;14.60;97.20;;;;;;5025593;28;20044;-74
2022/01/02 13:14:54;;;;;;;0.00;0.00;;;14.60;97.30;;;;;;5027436;28;20033;-76
2022/01/02 13:17:28;;;;;;;0.03;0.03;;;14.50;97.70;;;;;;5031042;28;20028;-77